createdAt,value
2022-09-02T00:01:39.386Z,12.80
2022-09-02T00:04:10.348Z,12.70
2022-09-02T00:06:38.770Z,12.70
2022-09-02T00:09:08.738Z,12.70
2022-09-02T00:11:39.752Z,12.60
2022-09-02T00:14:10.960Z,12.60
2022-09-02T00:16:40.058Z,12.50
2022-09-02T00:19:08.620Z,12.50
2022-09-02T00:21:37.957Z,12.40
2022-09-02T00:24:07.643Z,12.40
2022-09-02T00:26:36.166Z,12.40
2022-09-02T00:29:06.602Z,12.40
2022-09-02T00:31:36.803Z,12.40
2022-09-02T00:34:06.346Z,12.40
2022-09-02T00:36:34.744Z,12.30
2022-09-02T00:39:03.343Z,12.30
2022-09-02T00:41:32.512Z,12.30
2022-09-02T00:44:04.650Z,12.20
2022-09-02T00:46:35.334Z,12.20
2022-09-02T00:49:08.285Z,12.20
2022-09-02T00:51:41.784Z,12.10
2022-09-02T00:54:11.728Z,12.10
2022-09-02T00:56:41.945Z,12.10
2022-09-02T00:59:11.064Z,12.00
2022-09-02T01:01:40.847Z,12.00
2022-09-02T01:04:09.086Z,12.00
2022-09-02T01:06:40.290Z,11.90
2022-09-02T01:09:13.012Z,11.90
2022-09-02T01:11:44.197Z,11.90
2022-09-02T01:14:13.736Z,11.90
2022-09-02T01:16:46.895Z,11.90
2022-09-02T01:19:22.950Z,11.80
2022-09-02T01:21:54.260Z,11.80
2022-09-02T01:24:26.092Z,11.80
2022-09-02T01:26:57.286Z,11.70
2022-09-02T01:29:27.984Z,11.70
2022-09-02T01:31:57.062Z,11.70
2022-09-02T01:34:25.403Z,11.60
2022-09-02T01:36:55.339Z,11.60
2022-09-02T01:39:23.480Z,11.60
2022-09-02T01:41:52.246Z,11.60
2022-09-02T01:44:20.415Z,11.50
2022-09-02T01:47:19.848Z,11.60
2022-09-02T01:49:48.786Z,11.60
2022-09-02T01:52:20.166Z,11.50
2022-09-02T01:54:49.119Z,11.50
2022-09-02T01:57:17.254Z,11.50
2022-09-02T01:59:46.396Z,11.60
2022-09-02T02:02:20.382Z,11.50
2022-09-02T02:04:49.961Z,11.50
2022-09-02T02:07:21.015Z,11.50
2022-09-02T02:09:51.092Z,11.50
2022-09-02T02:12:20.338Z,11.50
2022-09-02T02:14:49.244Z,11.60
2022-09-02T02:17:17.386Z,11.60
2022-09-02T02:19:45.519Z,11.50
2022-09-02T02:22:14.110Z,11.50
2022-09-02T02:24:44.000Z,11.50
2022-09-02T02:27:12.057Z,11.50
2022-09-02T02:29:40.726Z,11.50
2022-09-02T02:32:09.084Z,11.50
2022-09-02T02:34:38.563Z,11.50
2022-09-02T02:37:07.407Z,11.50
2022-09-02T02:39:36.087Z,11.50
2022-09-02T02:42:06.193Z,11.40
2022-09-02T02:44:34.692Z,11.40
2022-09-02T02:47:03.361Z,11.40
2022-09-02T02:49:31.718Z,11.40
2022-09-02T02:51:59.956Z,11.40
2022-09-02T02:54:35.333Z,11.40
2022-09-02T02:57:07.909Z,11.30
2022-09-02T02:59:37.399Z,11.30
2022-09-02T03:02:07.704Z,11.30
2022-09-02T03:04:36.815Z,11.30
2022-09-02T03:07:07.562Z,11.30
2022-09-02T03:09:36.741Z,11.20
2022-09-02T03:12:06.798Z,11.20
2022-09-02T03:14:37.700Z,11.20
2022-09-02T03:17:06.807Z,11.20
2022-09-02T03:19:35.133Z,11.20
2022-09-02T03:22:03.550Z,11.20
2022-09-02T03:24:32.204Z,11.20
2022-09-02T03:27:01.281Z,11.10
2022-09-02T03:29:31.078Z,11.10
2022-09-02T03:32:00.846Z,11.00
2022-09-02T03:34:32.618Z,11.00
2022-09-02T03:37:00.715Z,10.90
2022-09-02T03:39:29.169Z,10.90
2022-09-02T03:41:57.333Z,10.90
2022-09-02T03:44:25.821Z,10.80
2022-09-02T03:46:56.141Z,10.80
2022-09-02T03:49:24.291Z,10.70
2022-09-02T03:51:52.813Z,10.70
2022-09-02T03:54:21.487Z,10.70
2022-09-02T03:56:49.731Z,10.60
2022-09-02T03:59:19.629Z,10.60
2022-09-02T04:01:47.697Z,10.60
2022-09-02T04:04:22.718Z,10.60
2022-09-02T04:06:52.842Z,10.50
2022-09-02T04:09:22.444Z,10.50
2022-09-02T04:11:50.805Z,10.50
2022-09-02T04:14:20.136Z,10.40
2022-09-02T04:16:48.790Z,10.50
2022-09-02T04:19:18.383Z,10.50
2022-09-02T04:21:47.182Z,10.60
2022-09-02T04:24:15.746Z,10.60
2022-09-02T04:26:47.681Z,10.60
2022-09-02T04:29:18.952Z,10.60
2022-09-02T04:31:49.905Z,10.60
2022-09-02T04:34:20.091Z,10.60
2022-09-02T04:36:50.932Z,10.60
2022-09-02T04:39:20.835Z,10.50
2022-09-02T04:41:50.874Z,10.50
2022-09-02T04:44:19.106Z,10.50
2022-09-02T04:46:50.340Z,10.50
2022-09-02T04:49:23.811Z,10.50
2022-09-02T04:51:55.029Z,10.40
2022-09-02T04:54:24.940Z,10.40
2022-09-02T04:56:53.871Z,10.40
2022-09-02T04:59:24.915Z,10.40
2022-09-02T05:02:06.804Z,10.40
2022-09-02T05:04:38.241Z,10.40
2022-09-02T05:07:11.959Z,10.40
2022-09-02T05:09:45.907Z,10.40
2022-09-02T05:12:15.080Z,10.50
2022-09-02T05:14:51.467Z,10.50
2022-09-02T05:17:21.667Z,10.60
2022-09-02T05:19:52.082Z,10.70
2022-09-02T05:22:21.359Z,10.70
2022-09-02T05:24:49.924Z,10.80
2022-09-02T05:27:18.482Z,10.90
2022-09-02T05:29:47.963Z,11.00
2022-09-02T05:32:19.930Z,11.10
2022-09-02T05:34:51.517Z,11.10
2022-09-02T05:37:20.280Z,11.30
2022-09-02T05:39:49.917Z,11.40
2022-09-02T05:42:20.532Z,11.40
2022-09-02T05:44:50.980Z,11.50
2022-09-02T05:47:22.916Z,11.60
2022-09-02T05:49:53.059Z,11.80
2022-09-02T05:52:41.420Z,11.90
2022-09-02T05:55:10.679Z,12.00
2022-09-02T05:57:40.861Z,12.10
2022-09-02T06:00:12.376Z,12.30
2022-09-02T06:02:59.058Z,12.50
2022-09-02T06:05:41.082Z,12.70
2022-09-02T06:08:20.326Z,12.90
2022-09-02T06:10:48.553Z,13.10
2022-09-02T06:13:22.486Z,13.40
2022-09-02T06:15:52.749Z,13.60
2022-09-02T06:18:26.695Z,13.90
2022-09-02T06:20:57.919Z,14.10
2022-09-02T06:23:32.581Z,14.40
2022-09-02T06:26:03.221Z,14.90
2022-09-02T06:28:32.109Z,15.40
2022-09-02T06:31:02.009Z,15.70
2022-09-02T06:33:30.303Z,15.80
2022-09-02T06:36:00.979Z,15.80
2022-09-02T06:38:29.295Z,15.80
2022-09-02T06:40:57.711Z,15.80
2022-09-02T06:43:42.718Z,15.70
2022-09-02T06:46:19.115Z,15.70
2022-09-02T06:48:50.214Z,15.80
2022-09-02T06:51:24.901Z,15.90
2022-09-02T06:53:55.113Z,16.30
2022-09-02T06:56:26.972Z,17.10
2022-09-02T06:58:55.751Z,18.80
2022-09-02T07:01:37.330Z,20.50
2022-09-02T07:04:23.667Z,21.80
2022-09-02T07:06:56.357Z,22.60
2022-09-02T07:09:31.253Z,23.70
2022-09-02T07:12:06.115Z,25.30
2022-09-02T07:14:40.046Z,27.40
2022-09-02T07:17:10.610Z,29.40
2022-09-02T07:19:39.249Z,31.30
2022-09-02T07:22:08.996Z,32.80
2022-09-02T07:24:42.658Z,34.30
2022-09-02T07:27:12.529Z,35.60
2022-09-02T07:29:41.496Z,36.70
2022-09-02T07:32:09.670Z,37.70
2022-09-02T07:34:38.413Z,38.70
2022-09-02T07:37:10.890Z,39.50
2022-09-02T07:39:41.553Z,40.10
2022-09-02T07:42:11.119Z,40.90
2022-09-02T07:44:39.298Z,41.60
2022-09-02T07:47:09.066Z,42.20
2022-09-02T07:52:30.636Z,43.10
2022-09-02T07:54:58.876Z,43.30
2022-09-02T07:57:27.438Z,43.50
2022-09-02T07:59:56.447Z,43.90
2022-09-02T08:02:25.034Z,44.40
2022-09-02T08:04:54.331Z,44.90
2022-09-02T08:07:24.281Z,45.20
2022-09-02T08:09:54.211Z,45.20
2022-09-02T08:12:22.881Z,44.90
2022-09-02T08:14:51.368Z,45.00
2022-09-02T08:17:19.534Z,45.20
2022-09-02T08:19:47.733Z,45.40
2022-09-02T08:22:16.207Z,45.20
2022-09-02T08:24:44.369Z,45.00
2022-09-02T08:27:13.768Z,44.80
2022-09-02T08:29:42.025Z,44.60
2022-09-02T08:32:10.188Z,44.00
2022-09-02T08:34:38.397Z,43.40
2022-09-02T08:37:08.185Z,42.70
2022-09-02T08:39:36.533Z,41.50
2022-09-02T08:42:16.509Z,40.60
2022-09-02T08:44:47.688Z,39.00
2022-09-02T08:47:23.096Z,38.60
2022-09-02T08:49:55.048Z,39.00
2022-09-02T08:52:29.377Z,39.30
2022-09-02T08:54:58.055Z,40.90
2022-09-02T08:57:27.667Z,42.60
2022-09-02T09:00:00.851Z,44.30
2022-09-02T09:02:46.465Z,45.60
2022-09-02T09:05:24.795Z,46.80
2022-09-02T09:08:13.986Z,47.20
2022-09-02T09:10:58.002Z,46.30
2022-09-02T09:13:48.626Z,46.90
2022-09-02T09:16:32.061Z,48.00
2022-09-02T09:19:08.965Z,49.40
2022-09-02T09:21:37.596Z,50.10
2022-09-02T09:24:10.367Z,50.40
2022-09-02T09:26:41.737Z,50.70
2022-09-02T09:29:10.662Z,51.20
2022-09-02T09:31:41.966Z,51.20
2022-09-02T09:34:12.746Z,50.80
2022-09-02T09:36:56.087Z,50.80
2022-09-02T09:39:26.911Z,50.20
2022-09-02T09:41:57.172Z,50.00
2022-09-02T09:44:44.661Z,50.30
2022-09-02T09:47:19.932Z,50.10
2022-09-02T09:49:51.337Z,50.20
2022-09-02T09:52:30.346Z,50.00
2022-09-02T09:55:12.780Z,50.70
2022-09-02T09:57:44.807Z,51.80
2022-09-02T10:00:28.763Z,51.70
2022-09-02T10:03:01.938Z,51.40
2022-09-02T10:05:33.816Z,50.70
2022-09-02T10:08:03.071Z,51.00
2022-09-02T10:10:32.544Z,51.30
2022-09-02T10:16:04.473Z,49.70
2022-09-02T10:18:40.187Z,50.10
2022-09-02T10:21:20.309Z,49.50
2022-09-02T10:23:57.414Z,49.20
2022-09-02T10:26:29.775Z,48.20
2022-09-02T10:29:12.936Z,47.20
2022-09-02T10:31:48.769Z,46.90
2022-09-02T10:34:30.014Z,47.00
2022-09-02T10:37:16.344Z,45.90
2022-09-02T10:40:14.159Z,45.70
2022-09-02T10:43:00.197Z,46.50
2022-09-02T10:45:35.710Z,47.60
2022-09-02T10:48:26.079Z,47.80
2022-09-02T10:51:03.449Z,47.60
2022-09-02T10:53:52.435Z,47.40
2022-09-02T10:56:23.018Z,45.80
2022-09-02T10:58:57.021Z,43.70
2022-09-02T11:01:29.724Z,42.60
2022-09-02T11:04:09.465Z,41.60
2022-09-02T11:09:36.771Z,42.00
2022-09-02T11:12:11.284Z,41.60
2022-09-02T11:14:52.434Z,41.00
2022-09-02T11:17:26.277Z,41.60
2022-09-02T11:20:00.170Z,42.20
2022-09-02T11:22:37.483Z,42.90
2022-09-02T11:25:10.764Z,42.90
2022-09-02T11:27:45.476Z,42.60
2022-09-02T11:30:18.391Z,42.60
2022-09-02T11:32:55.658Z,43.10
2022-09-02T11:35:27.398Z,42.90
2022-09-02T11:38:02.968Z,43.30
2022-09-02T11:40:38.849Z,43.20
2022-09-02T11:43:29.204Z,43.30
2022-09-02T11:46:19.633Z,43.80
2022-09-02T11:49:14.083Z,43.90
2022-09-02T11:52:01.821Z,43.80
2022-09-02T11:54:37.386Z,43.10
2022-09-02T11:57:07.629Z,43.10
2022-09-02T12:00:08.387Z,42.70
2022-09-02T12:02:46.934Z,43.50
2022-09-02T12:05:42.489Z,44.30
2022-09-02T12:08:13.391Z,43.90
2022-09-02T12:11:04.972Z,43.30
2022-09-02T12:13:36.906Z,41.30
2022-09-02T12:16:38.064Z,39.10
2022-09-02T12:19:28.893Z,36.40
2022-09-02T12:22:38.690Z,37.30
2022-09-02T12:25:42.253Z,37.80
2022-09-02T12:28:26.603Z,37.10
2022-09-02T12:31:40.544Z,37.50
2022-09-02T12:34:41.979Z,37.00
2022-09-02T12:37:11.436Z,37.80
2022-09-02T12:39:59.658Z,39.30
2022-09-02T12:42:33.367Z,39.90
2022-09-02T12:45:10.745Z,38.50
2022-09-02T12:47:53.231Z,38.60
2022-09-02T12:50:28.425Z,38.30
2022-09-02T12:53:18.039Z,39.00
2022-09-02T12:58:48.395Z,40.20
2022-09-02T13:01:24.643Z,39.80
2022-09-02T13:04:29.488Z,39.40
2022-09-02T13:07:31.587Z,38.70
2022-09-02T13:10:42.420Z,38.50
2022-09-02T13:13:33.276Z,39.00
2022-09-02T13:16:19.036Z,39.20
2022-09-02T13:19:20.813Z,38.80
2022-09-02T13:22:15.682Z,38.70
2022-09-02T13:25:13.246Z,37.60
2022-09-02T13:28:08.807Z,36.90
2022-09-02T13:30:54.190Z,35.50
2022-09-02T13:33:22.508Z,34.70
2022-09-02T13:35:59.136Z,33.20
2022-09-02T13:38:29.554Z,32.50
2022-09-02T13:40:57.821Z,32.00
2022-09-02T13:43:27.214Z,31.40
2022-09-02T13:46:00.498Z,31.10
2022-09-02T13:48:31.538Z,30.60
2022-09-02T13:51:13.537Z,30.50
2022-09-02T13:54:05.470Z,30.50
2022-09-02T13:56:32.001Z,30.50
2022-09-02T13:59:00.158Z,30.30
2022-09-02T14:01:31.250Z,30.10
2022-09-02T14:06:41.688Z,29.60
2022-09-02T14:09:23.119Z,29.30
2022-09-02T14:11:53.897Z,29.20
2022-09-02T14:14:25.042Z,29.30
2022-09-02T14:16:53.657Z,29.30
2022-09-02T14:19:26.406Z,29.20
2022-09-02T14:21:57.612Z,29.00
2022-09-02T14:24:29.296Z,28.70
2022-09-02T14:26:59.274Z,28.20
2022-09-02T14:29:32.345Z,27.60
2022-09-02T14:32:16.062Z,27.30
2022-09-02T14:34:46.061Z,27.20
2022-09-02T14:37:22.771Z,27.30
2022-09-02T14:40:04.742Z,27.50
2022-09-02T14:42:34.490Z,27.50
2022-09-02T14:45:05.699Z,27.50
2022-09-02T14:47:38.625Z,27.40
2022-09-02T14:50:12.277Z,27.20
2022-09-02T14:52:48.842Z,27.00
2022-09-02T14:55:44.729Z,26.90
2022-09-02T14:58:13.619Z,26.80
2022-09-02T15:00:41.724Z,26.70
2022-09-02T15:03:16.132Z,26.30
2022-09-02T15:05:44.526Z,26.00
2022-09-02T15:08:14.826Z,25.70
2022-09-02T15:10:45.261Z,25.50
2022-09-02T15:13:15.821Z,25.30
2022-09-02T15:15:44.048Z,25.20
2022-09-02T15:18:15.808Z,25.20
2022-09-02T15:20:43.927Z,25.30
2022-09-02T15:23:13.592Z,25.40
2022-09-02T15:25:41.756Z,25.50
2022-09-02T15:28:10.998Z,25.70
2022-09-02T15:30:39.940Z,25.70
2022-09-02T15:33:10.358Z,25.50
2022-09-02T15:35:46.633Z,25.30
2022-09-02T15:38:16.175Z,25.00
2022-09-02T15:40:45.208Z,24.80
2022-09-02T15:43:13.951Z,24.70
2022-09-02T15:45:47.219Z,24.60
2022-09-02T15:48:15.640Z,24.50
2022-09-02T15:50:46.505Z,24.30
2022-09-02T15:53:17.278Z,24.30
2022-09-02T15:55:45.407Z,24.10
2022-09-02T15:58:13.654Z,24.00
2022-09-02T16:00:44.052Z,24.00
2022-09-02T16:03:12.312Z,23.90
2022-09-02T16:05:43.171Z,23.90
2022-09-02T16:08:11.650Z,23.90
2022-09-02T16:10:41.347Z,23.90
2022-09-02T16:13:09.428Z,23.90
2022-09-02T16:15:38.422Z,23.80
2022-09-02T16:18:06.690Z,23.80
2022-09-02T16:20:34.749Z,23.70
2022-09-02T16:23:02.981Z,23.60
2022-09-02T16:25:31.110Z,23.50
2022-09-02T16:28:01.519Z,23.50
2022-09-02T16:30:30.152Z,23.50
2022-09-02T16:32:59.683Z,23.50
2022-09-02T16:35:27.720Z,23.50
2022-09-02T16:37:57.426Z,23.50
2022-09-02T16:40:25.777Z,23.50
2022-09-02T16:42:53.916Z,23.50
2022-09-02T16:45:23.701Z,23.40
2022-09-02T16:47:51.783Z,23.30
2022-09-02T16:50:20.082Z,23.20
2022-09-02T16:52:48.280Z,23.10
2022-09-02T16:55:18.720Z,22.90
2022-09-02T16:57:47.448Z,22.80
2022-09-02T17:00:17.217Z,22.70
2022-09-02T17:02:46.857Z,22.50
2022-09-02T17:05:17.464Z,22.40
2022-09-02T17:07:46.732Z,22.30
2022-09-02T17:10:14.840Z,22.20
2022-09-02T17:12:43.418Z,22.10
2022-09-02T17:15:11.869Z,21.90
2022-09-02T17:17:40.468Z,21.70
2022-09-02T17:20:13.059Z,21.70
2022-09-02T17:22:41.337Z,21.50
2022-09-02T17:25:10.176Z,21.50
2022-09-02T17:27:38.470Z,21.40
2022-09-02T17:30:07.750Z,21.20
2022-09-02T17:32:36.042Z,21.10
2022-09-02T17:35:04.649Z,21.00
2022-09-02T17:37:37.563Z,20.90
2022-09-02T17:40:07.572Z,20.90
2022-09-02T17:42:35.012Z,20.70
2022-09-02T17:45:03.208Z,20.60
2022-09-02T17:47:31.791Z,20.60
2022-09-02T17:50:00.484Z,20.50
2022-09-02T17:52:28.677Z,20.40
2022-09-02T17:54:58.089Z,20.30
2022-09-02T17:57:42.772Z,20.20
2022-09-02T18:00:13.387Z,20.10
2022-09-02T18:03:24.082Z,19.90
2022-09-02T18:06:05.664Z,19.90
2022-09-02T18:08:40.477Z,19.90
2022-09-02T18:11:09.992Z,19.80
2022-09-02T18:13:48.003Z,19.70
2022-09-02T18:16:32.990Z,19.60
2022-09-02T18:19:13.112Z,19.50
2022-09-02T18:22:06.535Z,19.40
2022-09-02T18:24:49.578Z,19.30
2022-09-02T18:27:27.939Z,19.10
2022-09-02T18:30:04.737Z,19.00
2022-09-02T18:33:06.622Z,18.90
2022-09-02T18:35:45.673Z,18.80
2022-09-02T18:38:28.008Z,18.70
2022-09-02T18:41:14.671Z,18.70
2022-09-02T18:43:59.394Z,18.60
2022-09-02T18:46:29.196Z,18.60
2022-09-02T18:49:00.352Z,18.50
2022-09-02T18:51:35.729Z,18.50
2022-09-02T18:54:13.008Z,18.50
2022-09-02T18:56:48.390Z,18.50
2022-09-02T18:59:25.962Z,18.50
2022-09-02T19:02:02.230Z,18.50
2022-09-02T19:04:34.280Z,18.50
2022-09-02T19:07:16.688Z,18.50
2022-09-02T19:09:45.015Z,18.60
2022-09-02T19:12:14.515Z,18.50
2022-09-02T19:14:44.907Z,18.50
2022-09-02T19:17:13.248Z,18.50
2022-09-02T19:19:41.316Z,18.50
2022-09-02T19:22:11.648Z,18.50
2022-09-02T19:24:45.025Z,18.50
2022-09-02T19:27:17.769Z,18.50
2022-09-02T19:29:51.305Z,18.50
2022-09-02T19:32:23.830Z,18.60
2022-09-02T19:34:52.675Z,18.60
2022-09-02T19:37:21.119Z,18.60
2022-09-02T19:39:54.216Z,18.60
2022-09-02T19:42:24.079Z,18.60
2022-09-02T19:44:54.131Z,18.50
2022-09-02T19:48:05.430Z,18.50
2022-09-02T19:50:11.569Z,18.50
2022-09-02T19:52:42.101Z,18.40
2022-09-02T19:55:12.877Z,18.50
2022-09-02T19:57:41.502Z,18.50
2022-09-02T20:00:12.992Z,18.50
2022-09-02T20:02:41.268Z,18.60
2022-09-02T20:05:09.761Z,18.60
2022-09-02T20:07:38.741Z,18.60
2022-09-02T20:10:08.596Z,18.60
2022-09-02T20:12:37.509Z,18.60
2022-09-02T20:15:07.825Z,18.60
2022-09-02T20:17:37.413Z,18.50
2022-09-02T20:20:12.616Z,18.50
2022-09-02T20:22:40.737Z,18.50
2022-09-02T20:25:09.592Z,18.40
2022-09-02T20:27:51.564Z,18.50
2022-09-02T20:30:20.640Z,18.40
2022-09-02T20:32:58.384Z,18.40
2022-09-02T20:35:50.945Z,18.40
2022-09-02T20:38:35.822Z,18.30
2022-09-02T20:41:09.556Z,18.20
2022-09-02T20:44:14.677Z,18.20
2022-09-02T20:46:56.154Z,18.10
2022-09-02T20:49:59.216Z,18.10
2022-09-02T20:52:37.355Z,18.10
2022-09-02T20:55:16.826Z,18.00
2022-09-02T20:58:13.497Z,17.90
2022-09-02T21:00:50.436Z,17.90
2022-09-02T21:03:25.864Z,17.90
2022-09-02T21:06:02.268Z,17.80
2022-09-02T21:08:35.318Z,17.80
2022-09-02T21:11:14.721Z,17.70
2022-09-02T21:13:47.850Z,17.70
2022-09-02T21:16:20.190Z,17.70
2022-09-02T21:19:01.744Z,17.60
2022-09-02T21:21:38.144Z,17.70
2022-09-02T21:24:09.564Z,17.60
2022-09-02T21:26:43.251Z,17.60
2022-09-02T21:29:21.160Z,17.50
2022-09-02T21:31:55.393Z,17.60
2022-09-02T21:34:29.487Z,17.60
2022-09-02T21:37:00.142Z,17.50
2022-09-02T21:39:35.746Z,17.50
2022-09-02T21:42:15.009Z,17.50
2022-09-02T21:44:59.292Z,17.50
2022-09-02T21:47:35.834Z,17.40
2022-09-02T21:50:13.327Z,17.40
2022-09-02T21:52:56.942Z,17.40
2022-09-02T21:55:44.627Z,17.40
2022-09-02T21:58:41.603Z,17.40
2022-09-02T22:01:19.182Z,17.40
2022-09-02T22:03:51.020Z,17.30
2022-09-02T22:06:27.232Z,17.30
2022-09-02T22:09:03.092Z,17.30
2022-09-02T22:11:37.311Z,17.30
2022-09-02T22:14:14.407Z,17.30
2022-09-02T22:16:53.810Z,17.30
2022-09-02T22:19:30.330Z,17.30
2022-09-02T22:22:06.714Z,17.20
2022-09-02T22:24:37.529Z,17.20
2022-09-02T22:27:13.555Z,17.20
2022-09-02T22:29:47.386Z,17.20
2022-09-02T22:32:18.742Z,17.20
2022-09-02T22:34:58.072Z,17.20
2022-09-02T22:37:40.161Z,17.10
2022-09-02T22:40:13.065Z,17.10
2022-09-02T22:42:41.919Z,17.00
2022-09-02T22:45:31.569Z,16.90
2022-09-02T22:48:22.333Z,16.90
2022-09-02T22:51:15.039Z,16.80
2022-09-02T22:56:42.888Z,16.60
2022-09-02T22:59:24.589Z,16.50
2022-09-02T23:02:01.925Z,16.50
2022-09-02T23:04:44.329Z,16.30
2022-09-02T23:07:14.817Z,16.30
2022-09-02T23:09:43.705Z,16.20
2022-09-02T23:12:28.956Z,16.10
2022-09-02T23:15:16.183Z,16.10
2022-09-02T23:17:57.881Z,16.10
2022-09-02T23:20:34.141Z,16.00
2022-09-02T23:23:14.223Z,15.90
2022-09-02T23:26:03.875Z,15.80
2022-09-02T23:28:46.548Z,15.70
2022-09-02T23:31:24.308Z,15.70
2022-09-02T23:34:06.941Z,15.60
2022-09-02T23:36:47.331Z,15.50
2022-09-02T23:39:40.239Z,15.40
2022-09-02T23:42:08.737Z,15.30
2022-09-02T23:44:38.218Z,15.20
2022-09-02T23:47:20.753Z,15.10
2022-09-02T23:49:58.337Z,15.00
2022-09-02T23:52:30.167Z,14.90
2022-09-02T23:55:07.607Z,14.90
2022-09-02T23:58:00.458Z,14.80
